sensor_id;sensor_type;location;lat;lon;timestamp;pressure;altitude;pressure_sealevel;temperature;humidity
79791;BME280;69278;52.220;5.172;2024-02-28T00:01:12;101987.09;;;4.41;82.74
79791;BME280;69278;52.220;5.172;2024-02-28T00:03:39;102080.06;;;5.00;82.83
79791;BME280;69278;52.220;5.172;2024-02-28T00:06:05;102093.84;;;5.03;82.70
79791;BME280;69278;52.220;5.172;2024-02-28T00:08:32;102093.13;;;5.00;83.03
79791;BME280;69278;52.220;5.172;2024-02-28T00:10:58;102087.22;;;4.96;83.12
79791;BME280;69278;52.220;5.172;2024-02-28T00:13:25;102076.06;;;4.93;83.22
79791;BME280;69278;52.220;5.172;2024-02-28T00:15:51;102090.09;;;4.90;83.00
79791;BME280;69278;52.220;5.172;2024-02-28T00:18:18;102091.94;;;4.88;82.76
79791;BME280;69278;52.220;5.172;2024-02-28T00:20:45;102073.38;;;4.76;82.45
79791;BME280;69278;52.220;5.172;2024-02-28T00:23:12;102060.88;;;4.63;82.86
79791;BME280;69278;52.220;5.172;2024-02-28T00:25:38;102063.59;;;4.60;82.50
79791;BME280;69278;52.220;5.172;2024-02-28T00:28:05;102084.78;;;4.73;82.70
79791;BME280;69278;52.220;5.172;2024-02-28T00:30:31;102081.69;;;4.65;82.73
79791;BME280;69278;52.220;5.172;2024-02-28T00:32:59;102092.03;;;4.66;82.78
79791;BME280;69278;52.220;5.172;2024-02-28T00:35:26;102088.59;;;4.66;82.70
79791;BME280;69278;52.220;5.172;2024-02-28T00:37:52;102079.41;;;4.57;82.92
79791;BME280;69278;52.220;5.172;2024-02-28T00:40:19;102078.69;;;4.54;83.04
79791;BME280;69278;52.220;5.172;2024-02-28T00:42:45;102092.47;;;4.57;82.75
79791;BME280;69278;52.220;5.172;2024-02-28T00:45:12;102063.72;;;4.39;83.25
79791;BME280;69278;52.220;5.172;2024-02-28T00:47:39;102081.38;;;4.52;82.81
79791;BME280;69278;52.220;5.172;2024-02-28T00:50:07;102063.78;;;4.37;83.00
79791;BME280;69278;52.220;5.172;2024-02-28T00:52:33;102085.09;;;4.47;83.24
79791;BME280;69278;52.220;5.172;2024-02-28T00:55:00;102088.69;;;4.44;83.15
79791;BME280;69278;52.220;5.172;2024-02-28T00:57:26;102080.09;;;4.42;83.69
79791;BME280;69278;52.220;5.172;2024-02-28T00:59:56;102075.28;;;4.33;83.42
79791;BME280;69278;52.220;5.172;2024-02-28T01:02:22;102051.63;;;4.18;83.24
79791;BME280;69278;52.220;5.172;2024-02-28T01:04:49;102060.22;;;4.20;83.78
79791;BME280;69278;52.220;5.172;2024-02-28T01:07:15;102073.03;;;4.24;83.62
79791;BME280;69278;52.220;5.172;2024-02-28T01:09:42;102071.38;;;4.23;83.49
79791;BME280;69278;52.220;5.172;2024-02-28T01:12:09;102069.75;;;4.21;83.85
79791;BME280;69278;52.220;5.172;2024-02-28T01:14:35;102048.47;;;4.10;83.87
79791;BME280;69278;52.220;5.172;2024-02-28T01:17:02;102060.41;;;4.15;83.78
79791;BME280;69278;52.220;5.172;2024-02-28T01:19:28;102092.91;;;4.27;83.75
79791;BME280;69278;52.220;5.172;2024-02-28T01:21:55;102075.94;;;4.18;83.95
79791;BME280;69278;52.220;5.172;2024-02-28T01:24:24;102075.06;;;4.18;83.93
79791;BME280;69278;52.220;5.172;2024-02-28T01:26:50;102080.03;;;4.24;83.91
79791;BME280;69278;52.220;5.172;2024-02-28T01:29:17;102084.66;;;4.17;83.85
79791;BME280;69278;52.220;5.172;2024-02-28T01:31:44;102042.16;;;3.95;83.45
79791;BME280;69278;52.220;5.172;2024-02-28T01:34:11;102055.72;;;4.03;83.90
79791;BME280;69278;52.220;5.172;2024-02-28T01:36:37;102076.81;;;4.17;84.21
79791;BME280;69278;52.220;5.172;2024-02-28T01:39:04;102054.75;;;4.06;83.89
79791;BME280;69278;52.220;5.172;2024-02-28T01:41:30;102073.44;;;4.15;83.76
79791;BME280;69278;52.220;5.172;2024-02-28T01:43:57;102053.03;;;4.04;84.28
79791;BME280;69278;52.220;5.172;2024-02-28T01:46:27;102083.00;;;4.15;84.18
79791;BME280;69278;52.220;5.172;2024-02-28T01:48:54;102079.59;;;4.14;84.23
79791;BME280;69278;52.220;5.172;2024-02-28T01:51:23;102074.53;;;4.10;84.08
79791;BME280;69278;52.220;5.172;2024-02-28T01:53:52;102069.16;;;4.14;84.42
79791;BME280;69278;52.220;5.172;2024-02-28T01:56:20;102032.66;;;3.94;84.32
79791;BME280;69278;52.220;5.172;2024-02-28T01:58:47;102069.00;;;4.17;84.49
79791;BME280;69278;52.220;5.172;2024-02-28T02:01:14;102036.56;;;4.04;84.71
79791;BME280;69278;52.220;5.172;2024-02-28T02:03:43;102051.03;;;4.11;84.78
79791;BME280;69278;52.220;5.172;2024-02-28T02:06:10;102025.75;;;3.93;84.71
79791;BME280;69278;52.220;5.172;2024-02-28T02:08:37;102071.50;;;4.20;84.74
79791;BME280;69278;52.220;5.172;2024-02-28T02:11:05;102011.28;;;3.86;84.91
79791;BME280;69278;52.220;5.172;2024-02-28T02:13:32;102060.28;;;4.18;84.78
79791;BME280;69278;52.220;5.172;2024-02-28T02:15:59;102076.56;;;4.23;84.79
79791;BME280;69278;52.220;5.172;2024-02-28T02:18:26;102063.53;;;4.23;84.74
79791;BME280;69278;52.220;5.172;2024-02-28T02:21:02;102055.84;;;4.20;84.97
79791;BME280;69278;52.220;5.172;2024-02-28T02:23:30;102054.13;;;4.19;84.84
79791;BME280;69278;52.220;5.172;2024-02-28T02:25:57;102070.97;;;4.32;84.88
79791;BME280;69278;52.220;5.172;2024-02-28T02:28:23;102047.16;;;4.20;85.06
79791;BME280;69278;52.220;5.172;2024-02-28T02:30:50;102058.91;;;4.30;84.97
79791;BME280;69278;52.220;5.172;2024-02-28T02:33:16;102045.09;;;4.28;85.30
79791;BME280;69278;52.220;5.172;2024-02-28T02:35:43;102043.38;;;4.27;85.23
79791;BME280;69278;52.220;5.172;2024-02-28T02:38:10;102055.06;;;4.38;85.05
79791;BME280;69278;52.220;5.172;2024-02-28T02:40:36;102069.25;;;4.51;85.47
79791;BME280;69278;52.220;5.172;2024-02-28T02:43:03;102046.97;;;4.44;85.50
79791;BME280;69278;52.220;5.172;2024-02-28T02:45:30;102067.16;;;4.59;85.32
79791;BME280;69278;52.220;5.172;2024-02-28T02:47:56;102050.78;;;4.56;85.39
79791;BME280;69278;52.220;5.172;2024-02-28T02:50:24;102058.81;;;4.70;85.23
79791;BME280;69278;52.220;5.172;2024-02-28T02:52:50;102056.94;;;4.74;84.56
79791;BME280;69278;52.220;5.172;2024-02-28T02:55:17;102064.63;;;4.77;84.38
79791;BME280;69278;52.220;5.172;2024-02-28T02:57:43;102049.19;;;4.72;84.50
79791;BME280;69278;52.220;5.172;2024-02-28T03:00:10;102058.34;;;4.81;85.17
79791;BME280;69278;52.220;5.172;2024-02-28T03:02:37;102065.97;;;4.85;84.83
79791;BME280;69278;52.220;5.172;2024-02-28T03:05:06;102058.69;;;4.92;84.49
79791;BME280;69278;52.220;5.172;2024-02-28T03:07:33;102044.06;;;4.89;84.65
79791;BME280;69278;52.220;5.172;2024-02-28T03:10:00;102018.69;;;4.72;84.53
79791;BME280;69278;52.220;5.172;2024-02-28T03:12:26;102051.22;;;5.03;84.89
79791;BME280;69278;52.220;5.172;2024-02-28T03:14:53;102051.09;;;5.06;84.23
79791;BME280;69278;52.220;5.172;2024-02-28T03:17:19;102043.53;;;5.00;84.80
79791;BME280;69278;52.220;5.172;2024-02-28T03:19:46;102060.38;;;5.11;84.50
79791;BME280;69278;52.220;5.172;2024-02-28T03:22:14;102050.91;;;5.09;84.59
79791;BME280;69278;52.220;5.172;2024-02-28T03:24:40;102036.34;;;5.05;84.60
79791;BME280;69278;52.220;5.172;2024-02-28T03:27:07;102049.66;;;5.17;84.04
79791;BME280;69278;52.220;5.172;2024-02-28T03:29:34;102037.06;;;5.08;84.21
79791;BME280;69278;52.220;5.172;2024-02-28T03:32:01;102043.66;;;5.15;84.15
79791;BME280;69278;52.220;5.172;2024-02-28T03:34:27;102054.66;;;5.22;84.49
79791;BME280;69278;52.220;5.172;2024-02-28T03:36:54;102052.78;;;5.25;84.33
79791;BME280;69278;52.220;5.172;2024-02-28T03:39:21;102047.38;;;5.28;84.08
79791;BME280;69278;52.220;5.172;2024-02-28T03:41:48;102042.31;;;5.25;84.22
79791;BME280;69278;52.220;5.172;2024-02-28T03:44:14;102033.78;;;5.22;84.41
79791;BME280;69278;52.220;5.172;2024-02-28T03:46:41;102049.75;;;5.33;84.12
79791;BME280;69278;52.220;5.172;2024-02-28T03:49:07;102038.84;;;5.25;84.33
79791;BME280;69278;52.220;5.172;2024-02-28T03:51:40;102062.69;;;5.36;84.60
79791;BME280;69278;52.220;5.172;2024-02-28T03:54:08;102052.38;;;5.33;84.44
79791;BME280;69278;52.220;5.172;2024-02-28T03:56:35;102055.63;;;5.38;84.44
79791;BME280;69278;52.220;5.172;2024-02-28T03:59:01;102042.00;;;5.31;84.42
79791;BME280;69278;52.220;5.172;2024-02-28T04:01:28;102041.34;;;5.28;84.07
79791;BME280;69278;52.220;5.172;2024-02-28T04:03:55;102056.47;;;5.38;84.65
79791;BME280;69278;52.220;5.172;2024-02-28T04:06:21;102013.19;;;5.16;84.31
79791;BME280;69278;52.220;5.172;2024-02-28T04:08:48;102050.47;;;5.36;84.40
79791;BME280;69278;52.220;5.172;2024-02-28T04:11:14;102025.94;;;5.22;84.87
79791;BME280;69278;52.220;5.172;2024-02-28T04:13:41;102047.94;;;5.35;84.67
79791;BME280;69278;52.220;5.172;2024-02-28T04:16:09;101994.69;;;5.02;84.91
79791;BME280;69278;52.220;5.172;2024-02-28T04:18:36;102067.41;;;5.47;84.62
79791;BME280;69278;52.220;5.172;2024-02-28T04:21:02;102062.09;;;5.48;85.24
79791;BME280;69278;52.220;5.172;2024-02-28T04:23:29;102064.66;;;5.50;84.92
79791;BME280;69278;52.220;5.172;2024-02-28T04:25:55;102055.47;;;5.41;85.10
79791;BME280;69278;52.220;5.172;2024-02-28T04:28:22;102058.00;;;5.43;84.85
79791;BME280;69278;52.220;5.172;2024-02-28T04:30:48;102065.34;;;5.53;85.25
79791;BME280;69278;52.220;5.172;2024-02-28T04:33:15;102074.88;;;5.54;84.91
79791;BME280;69278;52.220;5.172;2024-02-28T04:35:42;102047.50;;;5.44;85.25
79791;BME280;69278;52.220;5.172;2024-02-28T04:38:08;102066.09;;;5.55;84.88
79791;BME280;69278;52.220;5.172;2024-02-28T04:40:35;102079.03;;;5.58;85.15
79791;BME280;69278;52.220;5.172;2024-02-28T04:43:02;102028.31;;;5.26;84.92
79791;BME280;69278;52.220;5.172;2024-02-28T04:45:28;102082.41;;;5.60;85.14
79791;BME280;69278;52.220;5.172;2024-02-28T04:47:55;102094.56;;;5.61;85.30
79791;BME280;69278;52.220;5.172;2024-02-28T04:50:23;102094.41;;;5.64;85.01
79791;BME280;69278;52.220;5.172;2024-02-28T04:52:50;102062.22;;;5.45;84.91
79791;BME280;69278;52.220;5.172;2024-02-28T04:55:16;102095.31;;;5.63;84.94
79791;BME280;69278;52.220;5.172;2024-02-28T04:57:43;102082.25;;;5.63;84.99
79791;BME280;69278;52.220;5.172;2024-02-28T05:00:10;102096.09;;;5.65;84.89
79791;BME280;69278;52.220;5.172;2024-02-28T05:02:36;102084.72;;;5.66;85.53
79791;BME280;69278;52.220;5.172;2024-02-28T05:05:03;102088.16;;;5.67;85.20
79791;BME280;69278;52.220;5.172;2024-02-28T05:07:30;102094.25;;;5.67;85.47
79791;BME280;69278;52.220;5.172;2024-02-28T05:09:56;102082.88;;;5.68;85.58
79791;BME280;69278;52.220;5.172;2024-02-28T05:12:23;102081.34;;;5.64;85.28
79791;BME280;69278;52.220;5.172;2024-02-28T05:14:49;102088.78;;;5.72;85.94
79791;BME280;69278;52.220;5.172;2024-02-28T05:17:20;102072.56;;;5.65;85.63
79791;BME280;69278;52.220;5.172;2024-02-28T05:19:47;102029.81;;;5.32;85.38
79791;BME280;69278;52.220;5.172;2024-02-28T05:22:13;102090.41;;;5.74;86.04
79791;BME280;69278;52.220;5.172;2024-02-28T05:24:40;102070.91;;;5.64;85.32
79791;BME280;69278;52.220;5.172;2024-02-28T05:27:10;102092.03;;;5.77;85.45
79791;BME280;69278;52.220;5.172;2024-02-28T05:29:36;102081.56;;;5.77;85.87
79791;BME280;69278;52.220;5.172;2024-02-28T05:32:03;102055.38;;;5.61;85.68
79791;BME280;69278;52.220;5.172;2024-02-28T05:34:30;102080.59;;;5.79;85.43
79791;BME280;69278;52.220;5.172;2024-02-28T05:36:56;102082.28;;;5.80;85.74
79791;BME280;69278;52.220;5.172;2024-02-28T05:39:23;102077.91;;;5.81;85.37
79791;BME280;69278;52.220;5.172;2024-02-28T05:41:50;102050.00;;;5.64;85.54
79791;BME280;69278;52.220;5.172;2024-02-28T05:44:16;102077.81;;;5.82;85.60
79791;BME280;69278;52.220;5.172;2024-02-28T05:46:43;102040.44;;;5.63;85.89
79791;BME280;69278;52.220;5.172;2024-02-28T05:49:10;102089.13;;;5.83;85.62
79791;BME280;69278;52.220;5.172;2024-02-28T05:51:36;102048.56;;;5.57;85.85
79791;BME280;69278;52.220;5.172;2024-02-28T05:54:03;102051.66;;;5.65;85.54
79791;BME280;69278;52.220;5.172;2024-02-28T05:56:30;102076.22;;;5.80;85.51
79791;BME280;69278;52.220;5.172;2024-02-28T05:58:56;102095.88;;;5.88;85.44
79791;BME280;69278;52.220;5.172;2024-02-28T06:01:23;102086.22;;;5.89;86.38
79791;BME280;69278;52.220;5.172;2024-02-28T06:03:50;102083.56;;;5.90;85.93
79791;BME280;69278;52.220;5.172;2024-02-28T06:06:17;102085.22;;;5.91;86.64
79791;BME280;69278;52.220;5.172;2024-02-28T06:08:44;102076.91;;;5.83;85.91
79791;BME280;69278;52.220;5.172;2024-02-28T06:11:11;102058.22;;;5.74;86.56
79791;BME280;69278;52.220;5.172;2024-02-28T06:13:40;102092.94;;;5.94;86.40
79791;BME280;69278;52.220;5.172;2024-02-28T06:16:07;102060.66;;;5.77;86.38
79791;BME280;69278;52.220;5.172;2024-02-28T06:18:33;102089.31;;;5.97;86.49
79791;BME280;69278;52.220;5.172;2024-02-28T06:21:00;102093.66;;;5.98;86.34
79791;BME280;69278;52.220;5.172;2024-02-28T06:23:27;102044.53;;;5.69;86.52
79791;BME280;69278;52.220;5.172;2024-02-28T06:25:56;102097.03;;;6.00;87.11
79791;BME280;69278;52.220;5.172;2024-02-28T06:28:23;102096.06;;;6.01;86.93
79791;BME280;69278;52.220;5.172;2024-02-28T06:30:50;102093.41;;;6.03;86.47
79791;BME280;69278;52.220;5.172;2024-02-28T06:33:16;102044.00;;;5.79;86.88
79791;BME280;69278;52.220;5.172;2024-02-28T06:35:43;102095.84;;;6.06;87.10
79791;BME280;69278;52.220;5.172;2024-02-28T06:38:10;102110.53;;;6.08;86.65
79791;BME280;69278;52.220;5.172;2024-02-28T06:40:36;102095.63;;;5.93;87.01
79791;BME280;69278;52.220;5.172;2024-02-28T06:43:03;102087.94;;;5.90;86.96
79791;BME280;69278;52.220;5.172;2024-02-28T06:45:30;102126.94;;;6.12;86.98
79791;BME280;69278;52.220;5.172;2024-02-28T06:47:57;102121.63;;;6.13;86.96
79791;BME280;69278;52.220;5.172;2024-02-28T06:50:24;102130.31;;;6.14;87.03
79791;BME280;69278;52.220;5.172;2024-02-28T06:52:50;102140.72;;;6.15;86.91
79791;BME280;69278;52.220;5.172;2024-02-28T06:55:20;102127.16;;;6.07;86.85
79791;BME280;69278;52.220;5.172;2024-02-28T06:57:47;102139.69;;;6.18;86.78
79791;BME280;69278;52.220;5.172;2024-02-28T07:00:14;102099.31;;;6.06;87.40
79791;BME280;69278;52.220;5.172;2024-02-28T07:02:42;102144.41;;;7.11;90.15
79791;BME280;69278;52.220;5.172;2024-02-28T07:05:10;102110.00;;;7.64;90.51
79791;BME280;69278;52.220;5.172;2024-02-28T07:07:36;102094.66;;;8.17;89.08
79791;BME280;69278;52.220;5.172;2024-02-28T07:10:04;102132.84;;;8.81;88.36
79791;BME280;69278;52.220;5.172;2024-02-28T07:12:31;102127.19;;;9.15;87.09
79791;BME280;69278;52.220;5.172;2024-02-28T07:14:58;102145.06;;;9.51;86.14
79791;BME280;69278;52.220;5.172;2024-02-28T07:17:25;102125.47;;;9.69;85.12
79791;BME280;69278;52.220;5.172;2024-02-28T07:19:51;102105.31;;;9.82;84.14
79791;BME280;69278;52.220;5.172;2024-02-28T07:22:18;102106.94;;;9.97;83.36
79791;BME280;69278;52.220;5.172;2024-02-28T07:24:45;102144.31;;;10.29;82.63
79791;BME280;69278;52.220;5.172;2024-02-28T07:27:11;102126.09;;;10.38;81.78
79791;BME280;69278;52.220;5.172;2024-02-28T07:29:38;102095.75;;;10.33;80.37
79791;BME280;69278;52.220;5.172;2024-02-28T07:32:05;102140.03;;;10.65;79.96
79791;BME280;69278;52.220;5.172;2024-02-28T07:34:31;102138.53;;;10.74;79.80
79791;BME280;69278;52.220;5.172;2024-02-28T07:36:58;102142.56;;;10.80;79.10
79791;BME280;69278;52.220;5.172;2024-02-28T07:39:25;102156.66;;;10.79;75.12
79791;BME280;69278;52.220;5.172;2024-02-28T07:41:52;102146.25;;;10.13;76.55
79791;BME280;69278;52.220;5.172;2024-02-28T07:44:22;102164.47;;;9.62;76.56
79791;BME280;69278;52.220;5.172;2024-02-28T07:46:48;102144.66;;;9.02;78.02
79791;BME280;69278;52.220;5.172;2024-02-28T07:49:17;102165.28;;;8.80;78.68
79791;BME280;69278;52.220;5.172;2024-02-28T07:51:44;102168.78;;;8.50;79.37
79791;BME280;69278;52.220;5.172;2024-02-28T07:54:11;102171.50;;;8.19;80.40
79791;BME280;69278;52.220;5.172;2024-02-28T07:56:38;102183.38;;;8.11;81.04
79791;BME280;69278;52.220;5.172;2024-02-28T07:59:04;102173.84;;;7.94;81.97
79791;BME280;69278;52.220;5.172;2024-02-28T08:01:31;102188.81;;;7.92;82.49
79791;BME280;69278;52.220;5.172;2024-02-28T08:03:58;102183.16;;;7.84;83.22
79791;BME280;69278;52.220;5.172;2024-02-28T08:06:26;102189.59;;;7.78;83.40
79791;BME280;69278;52.220;5.172;2024-02-28T08:08:53;102181.28;;;7.70;83.38
79791;BME280;69278;52.220;5.172;2024-02-28T08:11:19;102186.53;;;7.70;83.56
79791;BME280;69278;52.220;5.172;2024-02-28T08:13:46;102198.03;;;7.68;84.21
79791;BME280;69278;52.220;5.172;2024-02-28T08:16:13;102203.47;;;7.65;83.50
79791;BME280;69278;52.220;5.172;2024-02-28T08:18:39;102185.03;;;7.51;83.89
79791;BME280;69278;52.220;5.172;2024-02-28T08:21:06;102202.88;;;7.60;84.59
79791;BME280;69278;52.220;5.172;2024-02-28T08:23:33;102206.41;;;7.59;85.09
79791;BME280;69278;52.220;5.172;2024-02-28T08:25:59;102192.63;;;7.55;84.19
79791;BME280;69278;52.220;5.172;2024-02-28T08:28:26;102193.81;;;7.50;85.59
79791;BME280;69278;52.220;5.172;2024-02-28T08:30:52;102216.03;;;7.58;85.09
79791;BME280;69278;52.220;5.172;2024-02-28T08:33:19;102197.28;;;7.50;85.24
79791;BME280;69278;52.220;5.172;2024-02-28T08:35:50;102212.59;;;7.58;85.78
79791;BME280;69278;52.220;5.172;2024-02-28T08:38:18;102214.28;;;7.59;85.73
79791;BME280;69278;52.220;5.172;2024-02-28T08:40:45;102219.44;;;7.60;85.93
79791;BME280;69278;52.220;5.172;2024-02-28T08:43:12;102219.50;;;7.59;86.36
79791;BME280;69278;52.220;5.172;2024-02-28T08:45:39;102225.28;;;7.65;86.42
79791;BME280;69278;52.220;5.172;2024-02-28T08:48:06;102215.81;;;7.63;86.25
79791;BME280;69278;52.220;5.172;2024-02-28T08:50:34;102224.34;;;7.66;85.91
79791;BME280;69278;52.220;5.172;2024-02-28T08:53:01;102197.44;;;7.47;85.85
79791;BME280;69278;52.220;5.172;2024-02-28T08:55:28;102231.28;;;7.67;86.22
79791;BME280;69278;52.220;5.172;2024-02-28T08:57:55;102228.47;;;7.70;86.68
79791;BME280;69278;52.220;5.172;2024-02-28T09:00:22;102210.06;;;7.72;86.05
79791;BME280;69278;52.220;5.172;2024-02-28T09:02:50;102184.69;;;7.57;86.12
79791;BME280;69278;52.220;5.172;2024-02-28T09:05:17;102177.41;;;7.62;86.71
79791;BME280;69278;52.220;5.172;2024-02-28T09:07:44;102215.97;;;7.91;86.97
79791;BME280;69278;52.220;5.172;2024-02-28T09:10:12;102173.50;;;7.69;86.17
79791;BME280;69278;52.220;5.172;2024-02-28T09:12:39;102160.91;;;7.75;86.04
79791;BME280;69278;52.220;5.172;2024-02-28T09:15:06;102209.78;;;8.08;85.94
79791;BME280;69278;52.220;5.172;2024-02-28T09:17:33;102205.28;;;8.10;85.94
79791;BME280;69278;52.220;5.172;2024-02-28T09:20:00;102197.69;;;8.05;85.66
79791;BME280;69278;52.220;5.172;2024-02-28T09:22:27;102204.25;;;8.12;85.62
79791;BME280;69278;52.220;5.172;2024-02-28T09:24:54;102181.34;;;8.00;85.77
79791;BME280;69278;52.220;5.172;2024-02-28T09:27:24;102198.00;;;8.15;85.67
79791;BME280;69278;52.220;5.172;2024-02-28T09:29:52;102217.47;;;8.26;85.41
79791;BME280;69278;52.220;5.172;2024-02-28T09:32:19;102208.69;;;8.27;84.59
79791;BME280;69278;52.220;5.172;2024-02-28T09:34:45;102188.44;;;8.14;84.67
79791;BME280;69278;52.220;5.172;2024-02-28T09:37:13;102217.19;;;8.31;84.98
79791;BME280;69278;52.220;5.172;2024-02-28T09:39:40;102210.00;;;8.34;84.63
79791;BME280;69278;52.220;5.172;2024-02-28T09:42:07;102196.72;;;8.22;84.76
79791;BME280;69278;52.220;5.172;2024-02-28T09:44:36;102167.91;;;8.06;84.71
79791;BME280;69278;52.220;5.172;2024-02-28T09:47:03;102175.66;;;8.08;84.65
79791;BME280;69278;52.220;5.172;2024-02-28T09:49:31;102211.38;;;8.26;84.63
79791;BME280;69278;52.220;5.172;2024-02-28T09:51:59;102231.00;;;8.34;84.46
79791;BME280;69278;52.220;5.172;2024-02-28T09:54:29;102228.47;;;8.33;84.58
79791;BME280;69278;52.220;5.172;2024-02-28T09:56:56;102233.72;;;8.33;84.43
79791;BME280;69278;52.220;5.172;2024-02-28T09:59:24;102245.16;;;8.32;84.62
79791;BME280;69278;52.220;5.172;2024-02-28T10:02:05;102244.22;;;8.33;84.69
79791;BME280;69278;52.220;5.172;2024-02-28T10:04:36;102248.63;;;8.32;84.47
79791;BME280;69278;52.220;5.172;2024-02-28T10:07:10;102242.44;;;8.33;84.23
79791;BME280;69278;52.220;5.172;2024-02-28T10:09:41;102184.28;;;8.10;84.20
79791;BME280;69278;52.220;5.172;2024-02-28T10:12:09;102221.78;;;8.43;84.39
79791;BME280;69278;52.220;5.172;2024-02-28T10:14:36;102219.81;;;8.46;84.24
79791;BME280;69278;52.220;5.172;2024-02-28T10:17:02;102224.59;;;8.54;84.12
79791;BME280;69278;52.220;5.172;2024-02-28T10:19:30;102213.66;;;8.61;83.94
79791;BME280;69278;52.220;5.172;2024-02-28T10:21:58;102157.19;;;8.40;83.70
79791;BME280;69278;52.220;5.172;2024-02-28T10:24:25;102193.97;;;8.68;83.38
79791;BME280;69278;52.220;5.172;2024-02-28T10:26:52;102213.69;;;8.90;83.13
79791;BME280;69278;52.220;5.172;2024-02-28T10:29:24;102183.38;;;8.84;83.18
79791;BME280;69278;52.220;5.172;2024-02-28T10:31:55;102203.41;;;9.15;82.61
79791;BME280;69278;52.220;5.172;2024-02-28T10:34:22;102210.63;;;9.25;82.59
79791;BME280;69278;52.220;5.172;2024-02-28T10:36:51;102199.06;;;9.28;82.49
79791;BME280;69278;52.220;5.172;2024-02-28T10:39:18;102200.28;;;9.37;82.38
79791;BME280;69278;52.220;5.172;2024-02-28T10:41:47;102203.19;;;9.46;82.11
79791;BME280;69278;52.220;5.172;2024-02-28T10:44:16;102163.84;;;9.30;81.98
79791;BME280;69278;52.220;5.172;2024-02-28T10:46:44;102182.16;;;9.46;81.62
79791;BME280;69278;52.220;5.172;2024-02-28T10:49:11;102175.00;;;9.48;81.61
79791;BME280;69278;52.220;5.172;2024-02-28T10:51:39;102191.50;;;9.64;81.57
79791;BME280;69278;52.220;5.172;2024-02-28T10:54:10;102211.75;;;9.76;81.17
79791;BME280;69278;52.220;5.172;2024-02-28T10:56:41;102206.13;;;9.82;81.58
79791;BME280;69278;52.220;5.172;2024-02-28T10:59:10;102202.34;;;9.86;81.23
79791;BME280;69278;52.220;5.172;2024-02-28T11:01:43;102056.53;;;9.10;81.24
79791;BME280;69278;52.220;5.172;2024-02-28T11:04:12;102164.72;;;9.72;81.03
79791;BME280;69278;52.220;5.172;2024-02-28T11:06:54;102204.31;;;9.97;81.15
79791;BME280;69278;52.220;5.172;2024-02-28T11:09:25;102206.94;;;9.97;80.74
79791;BME280;69278;52.220;5.172;2024-02-28T11:11:53;102166.78;;;9.81;80.46
79791;BME280;69278;52.220;5.172;2024-02-28T11:14:21;102197.25;;;9.97;80.63
79791;BME280;69278;52.220;5.172;2024-02-28T11:17:05;102195.91;;;10.05;80.66
79791;BME280;69278;52.220;5.172;2024-02-28T11:19:33;102156.44;;;9.78;80.36
79791;BME280;69278;52.220;5.172;2024-02-28T11:22:02;102170.94;;;9.97;80.35
79791;BME280;69278;52.220;5.172;2024-02-28T11:24:34;102193.56;;;10.14;80.30
79791;BME280;69278;52.220;5.172;2024-02-28T11:27:04;102181.78;;;10.06;79.67
79791;BME280;69278;52.220;5.172;2024-02-28T11:29:33;102191.78;;;10.15;80.00
79791;BME280;69278;52.220;5.172;2024-02-28T11:32:00;102183.03;;;10.14;80.14
79791;BME280;69278;52.220;5.172;2024-02-28T11:34:27;102168.44;;;10.09;80.17
79791;BME280;69278;52.220;5.172;2024-02-28T11:36:55;102157.47;;;10.02;80.24
79791;BME280;69278;52.220;5.172;2024-02-28T11:39:23;102094.53;;;9.72;80.14
79791;BME280;69278;52.220;5.172;2024-02-28T11:41:53;102180.00;;;10.33;80.10
79791;BME280;69278;52.220;5.172;2024-02-28T11:44:20;102174.94;;;10.30;80.34
79791;BME280;69278;52.220;5.172;2024-02-28T11:46:48;102142.38;;;10.18;80.25
79791;BME280;69278;52.220;5.172;2024-02-28T11:49:16;102163.47;;;10.31;80.34
79791;BME280;69278;52.220;5.172;2024-02-28T11:51:43;102164.44;;;10.42;80.30
79791;BME280;69278;52.220;5.172;2024-02-28T11:54:11;102144.19;;;10.30;80.07
79791;BME280;69278;52.220;5.172;2024-02-28T11:56:38;102178.78;;;10.51;79.86
79791;BME280;69278;52.220;5.172;2024-02-28T11:59:06;102158.78;;;10.48;80.02
79791;BME280;69278;52.220;5.172;2024-02-28T12:01:43;102174.69;;;10.59;79.55
79791;BME280;69278;52.220;5.172;2024-02-28T12:04:13;102177.72;;;10.66;79.85
79791;BME280;69278;52.220;5.172;2024-02-28T12:06:40;102168.16;;;10.65;79.67
79791;BME280;69278;52.220;5.172;2024-02-28T12:09:12;102169.75;;;10.68;79.54
79791;BME280;69278;52.220;5.172;2024-02-28T12:11:53;102162.47;;;10.71;79.45
79791;BME280;69278;52.220;5.172;2024-02-28T12:14:21;102154.13;;;10.64;79.14
79791;BME280;69278;52.220;5.172;2024-02-28T12:16:53;102165.00;;;10.73;79.21
79791;BME280;69278;52.220;5.172;2024-02-28T12:19:24;102125.47;;;10.47;78.87
79791;BME280;69278;52.220;5.172;2024-02-28T12:22:04;102156.66;;;10.66;79.04
79791;BME280;69278;52.220;5.172;2024-02-28T12:24:31;102112.81;;;10.40;78.67
79791;BME280;69278;52.220;5.172;2024-02-28T12:26:58;102112.63;;;10.43;78.47
79791;BME280;69278;52.220;5.172;2024-02-28T12:29:25;102159.81;;;10.71;77.90
79791;BME280;69278;52.220;5.172;2024-02-28T12:31:54;102154.78;;;10.68;78.50
79791;BME280;69278;52.220;5.172;2024-02-28T12:34:22;102133.47;;;10.58;78.39
79791;BME280;69278;52.220;5.172;2024-02-28T12:36:50;102144.44;;;10.65;78.47
79791;BME280;69278;52.220;5.172;2024-02-28T12:39:31;102152.88;;;10.57;78.40
79791;BME280;69278;52.220;5.172;2024-02-28T12:42:06;102127.88;;;10.38;78.45
79791;BME280;69278;52.220;5.172;2024-02-28T12:44:33;102113.22;;;10.21;78.47
79791;BME280;69278;52.220;5.172;2024-02-28T12:47:00;102148.75;;;10.41;78.71
79791;BME280;69278;52.220;5.172;2024-02-28T12:49:28;102144.63;;;10.37;79.02
79791;BME280;69278;52.220;5.172;2024-02-28T12:51:55;102150.72;;;10.37;79.09
79791;BME280;69278;52.220;5.172;2024-02-28T12:54:23;102116.06;;;10.18;79.29
79791;BME280;69278;52.220;5.172;2024-02-28T12:56:51;102150.41;;;10.42;79.14
79791;BME280;69278;52.220;5.172;2024-02-28T12:59:19;102123.78;;;10.34;79.24